sensor_id;sensor_type;location;lat;lon;timestamp;P1;durP1;ratioP1;P2;durP2;ratioP2
74541;SDS011;63015;45.378;20.360;2024-01-07T00:01:07;4.63;;;2.05;;
74541;SDS011;63015;45.378;20.360;2024-01-07T00:03:09;7.22;;;1.85;;
74541;SDS011;63015;45.378;20.360;2024-01-07T00:05:09;4.20;;;1.73;;
74541;SDS011;63015;45.378;20.360;2024-01-07T00:07:10;5.32;;;2.08;;
74541;SDS011;63015;45.378;20.360;2024-01-07T00:09:11;3.60;;;1.30;;
74541;SDS011;63015;45.378;20.360;2024-01-07T00:11:12;4.75;;;2.15;;
74541;SDS011;63015;45.378;20.360;2024-01-07T00:13:13;5.93;;;2.10;;
74541;SDS011;63015;45.378;20.360;2024-01-07T00:15:14;5.78;;;2.47;;
74541;SDS011;63015;45.378;20.360;2024-01-07T00:17:14;7.18;;;2.35;;
74541;SDS011;63015;45.378;20.360;2024-01-07T00:19:15;6.70;;;2.45;;
74541;SDS011;63015;45.378;20.360;2024-01-07T00:21:15;5.78;;;3.00;;
74541;SDS011;63015;45.378;20.360;2024-01-07T00:23:15;8.00;;;2.58;;
74541;SDS011;63015;45.378;20.360;2024-01-07T00:25:16;7.63;;;2.42;;
74541;SDS011;63015;45.378;20.360;2024-01-07T00:27:18;8.25;;;3.00;;
74541;SDS011;63015;45.378;20.360;2024-01-07T00:29:18;7.65;;;3.25;;
74541;SDS011;63015;45.378;20.360;2024-01-07T00:31:19;9.55;;;3.30;;
74541;SDS011;63015;45.378;20.360;2024-01-07T00:33:19;5.47;;;2.38;;
74541;SDS011;63015;45.378;20.360;2024-01-07T00:35:20;8.80;;;3.03;;
74541;SDS011;63015;45.378;20.360;2024-01-07T00:37:20;6.53;;;2.67;;
74541;SDS011;63015;45.378;20.360;2024-01-07T00:39:21;7.55;;;3.17;;
74541;SDS011;63015;45.378;20.360;2024-01-07T00:41:21;7.28;;;3.10;;
74541;SDS011;63015;45.378;20.360;2024-01-07T00:43:22;4.97;;;2.15;;
74541;SDS011;63015;45.378;20.360;2024-01-07T00:45:22;6.15;;;2.83;;
74541;SDS011;63015;45.378;20.360;2024-01-07T00:47:23;6.18;;;2.42;;
74541;SDS011;63015;45.378;20.360;2024-01-07T00:49:23;4.88;;;2.17;;
74541;SDS011;63015;45.378;20.360;2024-01-07T00:51:24;6.63;;;1.52;;
74541;SDS011;63015;45.378;20.360;2024-01-07T00:53:24;5.90;;;2.47;;
74541;SDS011;63015;45.378;20.360;2024-01-07T00:55:25;6.00;;;2.17;;
74541;SDS011;63015;45.378;20.360;2024-01-07T00:57:25;6.85;;;2.58;;
74541;SDS011;63015;45.378;20.360;2024-01-07T00:59:27;5.38;;;2.30;;
74541;SDS011;63015;45.378;20.360;2024-01-07T01:01:30;6.05;;;2.05;;
74541;SDS011;63015;45.378;20.360;2024-01-07T01:03:31;6.18;;;1.77;;
74541;SDS011;63015;45.378;20.360;2024-01-07T01:05:32;3.45;;;1.30;;
74541;SDS011;63015;45.378;20.360;2024-01-07T01:07:32;6.10;;;2.60;;
74541;SDS011;63015;45.378;20.360;2024-01-07T01:09:33;6.97;;;2.75;;
74541;SDS011;63015;45.378;20.360;2024-01-07T01:11:34;5.75;;;2.58;;
74541;SDS011;63015;45.378;20.360;2024-01-07T01:13:34;5.97;;;1.98;;
74541;SDS011;63015;45.378;20.360;2024-01-07T01:15:34;4.82;;;1.73;;
74541;SDS011;63015;45.378;20.360;2024-01-07T01:17:35;9.43;;;2.38;;
74541;SDS011;63015;45.378;20.360;2024-01-07T01:19:35;6.22;;;1.77;;
74541;SDS011;63015;45.378;20.360;2024-01-07T01:21:36;5.25;;;1.88;;
74541;SDS011;63015;45.378;20.360;2024-01-07T01:23:36;7.20;;;1.52;;
74541;SDS011;63015;45.378;20.360;2024-01-07T01:25:37;4.47;;;1.45;;
74541;SDS011;63015;45.378;20.360;2024-01-07T01:27:39;5.10;;;2.00;;
74541;SDS011;63015;45.378;20.360;2024-01-07T01:29:40;4.75;;;1.50;;
74541;SDS011;63015;45.378;20.360;2024-01-07T01:31:41;4.22;;;1.35;;
74541;SDS011;63015;45.378;20.360;2024-01-07T01:33:41;4.45;;;1.65;;
74541;SDS011;63015;45.378;20.360;2024-01-07T01:35:42;5.57;;;1.80;;
74541;SDS011;63015;45.378;20.360;2024-01-07T01:37:43;4.75;;;1.50;;
74541;SDS011;63015;45.378;20.360;2024-01-07T01:39:44;3.08;;;1.00;;
74541;SDS011;63015;45.378;20.360;2024-01-07T01:41:45;5.32;;;1.38;;
74541;SDS011;63015;45.378;20.360;2024-01-07T01:43:46;8.20;;;1.70;;
74541;SDS011;63015;45.378;20.360;2024-01-07T01:45:46;4.07;;;1.60;;
74541;SDS011;63015;45.378;20.360;2024-01-07T01:47:47;4.63;;;1.60;;
74541;SDS011;63015;45.378;20.360;2024-01-07T01:49:48;5.90;;;2.08;;
74541;SDS011;63015;45.378;20.360;2024-01-07T01:51:48;4.05;;;1.60;;
74541;SDS011;63015;45.378;20.360;2024-01-07T01:53:50;6.18;;;1.73;;
74541;SDS011;63015;45.378;20.360;2024-01-07T01:55:51;5.97;;;2.08;;
74541;SDS011;63015;45.378;20.360;2024-01-07T01:57:52;5.60;;;1.90;;
74541;SDS011;63015;45.378;20.360;2024-01-07T01:59:54;3.67;;;1.50;;
74541;SDS011;63015;45.378;20.360;2024-01-07T02:01:55;5.47;;;1.77;;
74541;SDS011;63015;45.378;20.360;2024-01-07T02:03:56;4.55;;;2.00;;
74541;SDS011;63015;45.378;20.360;2024-01-07T02:05:57;5.72;;;2.08;;
74541;SDS011;63015;45.378;20.360;2024-01-07T02:07:58;6.88;;;2.13;;
74541;SDS011;63015;45.378;20.360;2024-01-07T02:09:59;4.70;;;1.80;;
74541;SDS011;63015;45.378;20.360;2024-01-07T02:12:00;5.35;;;2.08;;
74541;SDS011;63015;45.378;20.360;2024-01-07T02:14:04;4.50;;;1.73;;
74541;SDS011;63015;45.378;20.360;2024-01-07T02:16:05;4.65;;;1.70;;
74541;SDS011;63015;45.378;20.360;2024-01-07T02:18:05;3.78;;;1.48;;
74541;SDS011;63015;45.378;20.360;2024-01-07T02:20:06;5.78;;;2.22;;
74541;SDS011;63015;45.378;20.360;2024-01-07T02:22:07;5.45;;;1.95;;
74541;SDS011;63015;45.378;20.360;2024-01-07T02:24:07;5.60;;;1.90;;
74541;SDS011;63015;45.378;20.360;2024-01-07T02:26:15;8.75;;;3.10;;
74541;SDS011;63015;45.378;20.360;2024-01-07T02:28:16;6.78;;;3.00;;
74541;SDS011;63015;45.378;20.360;2024-01-07T02:30:17;5.57;;;1.48;;
74541;SDS011;63015;45.378;20.360;2024-01-07T02:32:17;8.00;;;3.08;;
74541;SDS011;63015;45.378;20.360;2024-01-07T02:34:18;8.98;;;2.28;;
74541;SDS011;63015;45.378;20.360;2024-01-07T02:36:18;6.97;;;2.50;;
74541;SDS011;63015;45.378;20.360;2024-01-07T02:38:19;6.82;;;2.95;;
74541;SDS011;63015;45.378;20.360;2024-01-07T02:40:19;6.43;;;2.78;;
74541;SDS011;63015;45.378;20.360;2024-01-07T02:42:20;6.45;;;2.88;;
74541;SDS011;63015;45.378;20.360;2024-01-07T02:44:20;7.22;;;2.85;;
74541;SDS011;63015;45.378;20.360;2024-01-07T02:46:21;5.82;;;2.38;;
74541;SDS011;63015;45.378;20.360;2024-01-07T02:48:24;8.15;;;3.38;;
74541;SDS011;63015;45.378;20.360;2024-01-07T02:50:25;5.82;;;2.40;;
74541;SDS011;63015;45.378;20.360;2024-01-07T02:52:25;7.78;;;3.20;;
74541;SDS011;63015;45.378;20.360;2024-01-07T02:54:25;6.45;;;2.88;;
74541;SDS011;63015;45.378;20.360;2024-01-07T02:56:26;7.13;;;2.42;;
74541;SDS011;63015;45.378;20.360;2024-01-07T02:58:27;6.07;;;1.45;;
74541;SDS011;63015;45.378;20.360;2024-01-07T03:00:27;6.05;;;2.60;;
74541;SDS011;63015;45.378;20.360;2024-01-07T03:02:28;8.00;;;3.40;;
74541;SDS011;63015;45.378;20.360;2024-01-07T03:04:28;6.70;;;3.22;;
74541;SDS011;63015;45.378;20.360;2024-01-07T03:06:29;8.82;;;3.10;;
74541;SDS011;63015;45.378;20.360;2024-01-07T03:08:29;9.63;;;3.40;;
74541;SDS011;63015;45.378;20.360;2024-01-07T03:10:30;5.70;;;2.22;;
74541;SDS011;63015;45.378;20.360;2024-01-07T03:12:30;8.00;;;3.30;;
74541;SDS011;63015;45.378;20.360;2024-01-07T03:14:30;8.93;;;3.17;;
74541;SDS011;63015;45.378;20.360;2024-01-07T03:16:31;10.75;;;3.63;;
74541;SDS011;63015;45.378;20.360;2024-01-07T03:18:32;9.43;;;3.67;;
74541;SDS011;63015;45.378;20.360;2024-01-07T03:20:32;7.65;;;2.95;;
74541;SDS011;63015;45.378;20.360;2024-01-07T03:22:33;8.65;;;3.17;;
74541;SDS011;63015;45.378;20.360;2024-01-07T03:24:33;9.02;;;3.45;;
74541;SDS011;63015;45.378;20.360;2024-01-07T03:26:34;9.80;;;3.20;;
74541;SDS011;63015;45.378;20.360;2024-01-07T03:28:34;10.25;;;3.85;;
74541;SDS011;63015;45.378;20.360;2024-01-07T03:30:35;6.28;;;2.97;;
74541;SDS011;63015;45.378;20.360;2024-01-07T03:32:35;8.50;;;3.92;;
74541;SDS011;63015;45.378;20.360;2024-01-07T03:34:36;6.55;;;2.38;;
74541;SDS011;63015;45.378;20.360;2024-01-07T03:36:36;10.65;;;4.20;;
74541;SDS011;63015;45.378;20.360;2024-01-07T03:38:37;8.02;;;4.55;;
74541;SDS011;63015;45.378;20.360;2024-01-07T03:40:38;11.13;;;4.72;;
74541;SDS011;63015;45.378;20.360;2024-01-07T03:42:40;7.63;;;3.22;;
74541;SDS011;63015;45.378;20.360;2024-01-07T03:44:41;9.48;;;4.40;;
74541;SDS011;63015;45.378;20.360;2024-01-07T03:46:41;9.52;;;4.45;;
74541;SDS011;63015;45.378;20.360;2024-01-07T03:48:42;8.63;;;4.38;;
74541;SDS011;63015;45.378;20.360;2024-01-07T03:50:42;9.88;;;4.13;;
74541;SDS011;63015;45.378;20.360;2024-01-07T03:52:43;10.15;;;4.32;;
74541;SDS011;63015;45.378;20.360;2024-01-07T03:54:43;9.07;;;3.97;;
74541;SDS011;63015;45.378;20.360;2024-01-07T03:56:44;9.75;;;3.97;;
74541;SDS011;63015;45.378;20.360;2024-01-07T03:58:44;10.05;;;4.90;;
74541;SDS011;63015;45.378;20.360;2024-01-07T04:00:45;8.07;;;3.08;;
74541;SDS011;63015;45.378;20.360;2024-01-07T04:02:45;10.25;;;4.50;;
74541;SDS011;63015;45.378;20.360;2024-01-07T04:04:46;7.82;;;4.25;;
74541;SDS011;63015;45.378;20.360;2024-01-07T04:06:46;8.65;;;3.33;;
74541;SDS011;63015;45.378;20.360;2024-01-07T04:08:47;9.85;;;4.20;;
74541;SDS011;63015;45.378;20.360;2024-01-07T04:10:47;11.18;;;5.03;;
74541;SDS011;63015;45.378;20.360;2024-01-07T04:12:49;8.65;;;4.07;;
74541;SDS011;63015;45.378;20.360;2024-01-07T04:14:49;10.40;;;3.97;;
74541;SDS011;63015;45.378;20.360;2024-01-07T04:16:49;10.90;;;4.53;;
74541;SDS011;63015;45.378;20.360;2024-01-07T04:18:50;12.35;;;5.60;;
74541;SDS011;63015;45.378;20.360;2024-01-07T04:20:51;9.68;;;4.78;;
74541;SDS011;63015;45.378;20.360;2024-01-07T04:22:51;9.70;;;4.93;;
74541;SDS011;63015;45.378;20.360;2024-01-07T04:24:52;8.98;;;4.40;;
74541;SDS011;63015;45.378;20.360;2024-01-07T04:26:52;9.18;;;4.40;;
74541;SDS011;63015;45.378;20.360;2024-01-07T04:28:53;11.13;;;4.03;;
74541;SDS011;63015;45.378;20.360;2024-01-07T04:30:53;10.80;;;4.10;;
74541;SDS011;63015;45.378;20.360;2024-01-07T04:32:54;9.23;;;4.53;;
74541;SDS011;63015;45.378;20.360;2024-01-07T04:34:54;8.85;;;4.82;;
74541;SDS011;63015;45.378;20.360;2024-01-07T04:36:56;5.68;;;2.55;;
74541;SDS011;63015;45.378;20.360;2024-01-07T04:38:56;10.00;;;4.57;;
74541;SDS011;63015;45.378;20.360;2024-01-07T04:40:57;8.65;;;4.47;;
74541;SDS011;63015;45.378;20.360;2024-01-07T04:42:57;9.70;;;3.97;;
74541;SDS011;63015;45.378;20.360;2024-01-07T04:44:58;10.27;;;4.40;;
74541;SDS011;63015;45.378;20.360;2024-01-07T04:46:58;8.75;;;4.15;;
74541;SDS011;63015;45.378;20.360;2024-01-07T04:48:59;10.20;;;4.82;;
74541;SDS011;63015;45.378;20.360;2024-01-07T04:50:59;9.00;;;4.82;;
74541;SDS011;63015;45.378;20.360;2024-01-07T04:53:00;10.73;;;4.32;;
74541;SDS011;63015;45.378;20.360;2024-01-07T04:55:01;9.32;;;3.90;;
74541;SDS011;63015;45.378;20.360;2024-01-07T04:57:02;7.85;;;3.40;;
74541;SDS011;63015;45.378;20.360;2024-01-07T04:59:03;8.60;;;3.88;;
74541;SDS011;63015;45.378;20.360;2024-01-07T05:01:03;10.50;;;4.38;;
74541;SDS011;63015;45.378;20.360;2024-01-07T05:03:04;9.65;;;4.05;;
74541;SDS011;63015;45.378;20.360;2024-01-07T05:05:04;8.48;;;4.22;;
74541;SDS011;63015;45.378;20.360;2024-01-07T05:07:05;10.73;;;4.18;;
74541;SDS011;63015;45.378;20.360;2024-01-07T05:09:05;8.45;;;4.10;;
74541;SDS011;63015;45.378;20.360;2024-01-07T05:11:06;9.23;;;4.22;;
74541;SDS011;63015;45.378;20.360;2024-01-07T05:13:06;9.07;;;4.07;;
74541;SDS011;63015;45.378;20.360;2024-01-07T05:15:07;9.82;;;5.03;;
74541;SDS011;63015;45.378;20.360;2024-01-07T05:17:08;9.15;;;4.50;;
74541;SDS011;63015;45.378;20.360;2024-01-07T05:19:08;9.93;;;4.53;;
74541;SDS011;63015;45.378;20.360;2024-01-07T05:21:09;7.47;;;3.13;;
74541;SDS011;63015;45.378;20.360;2024-01-07T05:23:09;12.32;;;4.55;;
74541;SDS011;63015;45.378;20.360;2024-01-07T05:25:10;11.90;;;5.35;;
74541;SDS011;63015;45.378;20.360;2024-01-07T05:27:10;5.40;;;2.03;;
74541;SDS011;63015;45.378;20.360;2024-01-07T05:29:11;9.85;;;4.57;;
74541;SDS011;63015;45.378;20.360;2024-01-07T05:31:15;7.78;;;3.42;;
74541;SDS011;63015;45.378;20.360;2024-01-07T05:33:16;10.43;;;4.13;;
74541;SDS011;63015;45.378;20.360;2024-01-07T05:35:17;6.55;;;3.13;;
74541;SDS011;63015;45.378;20.360;2024-01-07T05:37:17;9.02;;;4.55;;
74541;SDS011;63015;45.378;20.360;2024-01-07T05:39:18;9.80;;;4.15;;
74541;SDS011;63015;45.378;20.360;2024-01-07T05:41:18;8.43;;;3.85;;
74541;SDS011;63015;45.378;20.360;2024-01-07T05:43:19;9.77;;;4.35;;
74541;SDS011;63015;45.378;20.360;2024-01-07T05:45:19;9.50;;;4.35;;
74541;SDS011;63015;45.378;20.360;2024-01-07T05:47:20;8.27;;;3.60;;
74541;SDS011;63015;45.378;20.360;2024-01-07T05:49:20;9.18;;;4.72;;
74541;SDS011;63015;45.378;20.360;2024-01-07T05:51:21;12.90;;;4.00;;
74541;SDS011;63015;45.378;20.360;2024-01-07T05:53:21;9.68;;;4.18;;
74541;SDS011;63015;45.378;20.360;2024-01-07T05:55:22;8.80;;;4.28;;
74541;SDS011;63015;45.378;20.360;2024-01-07T05:57:22;9.27;;;3.95;;
74541;SDS011;63015;45.378;20.360;2024-01-07T05:59:23;8.57;;;3.67;;
74541;SDS011;63015;45.378;20.360;2024-01-07T06:01:23;8.98;;;3.97;;
74541;SDS011;63015;45.378;20.360;2024-01-07T06:03:24;7.68;;;3.70;;
74541;SDS011;63015;45.378;20.360;2024-01-07T06:05:24;8.50;;;4.22;;
74541;SDS011;63015;45.378;20.360;2024-01-07T06:07:25;8.27;;;3.92;;
74541;SDS011;63015;45.378;20.360;2024-01-07T06:09:25;6.25;;;2.72;;
74541;SDS011;63015;45.378;20.360;2024-01-07T06:11:26;6.65;;;2.47;;
74541;SDS011;63015;45.378;20.360;2024-01-07T06:13:27;6.53;;;2.42;;
74541;SDS011;63015;45.378;20.360;2024-01-07T06:15:27;7.50;;;2.63;;
74541;SDS011;63015;45.378;20.360;2024-01-07T06:17:28;5.30;;;2.53;;
74541;SDS011;63015;45.378;20.360;2024-01-07T06:19:29;5.88;;;2.35;;
74541;SDS011;63015;45.378;20.360;2024-01-07T06:21:29;6.47;;;1.95;;
74541;SDS011;63015;45.378;20.360;2024-01-07T06:23:32;8.20;;;2.13;;
74541;SDS011;63015;45.378;20.360;2024-01-07T06:25:33;7.50;;;2.50;;
74541;SDS011;63015;45.378;20.360;2024-01-07T06:27:33;6.40;;;2.30;;
74541;SDS011;63015;45.378;20.360;2024-01-07T06:29:34;4.85;;;2.25;;
74541;SDS011;63015;45.378;20.360;2024-01-07T06:31:34;5.32;;;2.10;;
74541;SDS011;63015;45.378;20.360;2024-01-07T06:33:35;4.68;;;1.52;;
74541;SDS011;63015;45.378;20.360;2024-01-07T06:35:35;5.47;;;1.83;;
74541;SDS011;63015;45.378;20.360;2024-01-07T06:37:36;4.65;;;2.15;;
74541;SDS011;63015;45.378;20.360;2024-01-07T06:39:36;6.00;;;1.77;;
74541;SDS011;63015;45.378;20.360;2024-01-07T06:41:37;9.52;;;2.65;;
74541;SDS011;63015;45.378;20.360;2024-01-07T06:43:38;6.55;;;1.85;;
74541;SDS011;63015;45.378;20.360;2024-01-07T06:45:39;6.38;;;2.67;;
74541;SDS011;63015;45.378;20.360;2024-01-07T06:47:39;5.20;;;1.98;;
74541;SDS011;63015;45.378;20.360;2024-01-07T06:49:39;7.82;;;2.20;;
74541;SDS011;63015;45.378;20.360;2024-01-07T06:51:40;5.18;;;2.72;;
74541;SDS011;63015;45.378;20.360;2024-01-07T06:53:40;9.18;;;3.08;;
74541;SDS011;63015;45.378;20.360;2024-01-07T06:55:41;6.20;;;2.08;;
74541;SDS011;63015;45.378;20.360;2024-01-07T06:57:41;7.57;;;2.78;;
74541;SDS011;63015;45.378;20.360;2024-01-07T06:59:42;6.70;;;3.00;;
74541;SDS011;63015;45.378;20.360;2024-01-07T07:01:42;7.50;;;2.80;;
74541;SDS011;63015;45.378;20.360;2024-01-07T07:03:43;10.02;;;2.97;;
74541;SDS011;63015;45.378;20.360;2024-01-07T07:05:43;8.95;;;2.97;;
74541;SDS011;63015;45.378;20.360;2024-01-07T07:07:44;8.18;;;3.28;;
74541;SDS011;63015;45.378;20.360;2024-01-07T07:09:45;6.78;;;2.85;;
74541;SDS011;63015;45.378;20.360;2024-01-07T07:11:45;8.10;;;3.20;;
74541;SDS011;63015;45.378;20.360;2024-01-07T07:13:46;7.22;;;3.05;;
74541;SDS011;63015;45.378;20.360;2024-01-07T07:15:46;7.35;;;2.90;;
74541;SDS011;63015;45.378;20.360;2024-01-07T07:17:47;6.95;;;3.55;;
74541;SDS011;63015;45.378;20.360;2024-01-07T07:19:48;8.93;;;4.20;;
74541;SDS011;63015;45.378;20.360;2024-01-07T07:21:48;8.25;;;4.07;;
74541;SDS011;63015;45.378;20.360;2024-01-07T07:23:48;9.73;;;4.45;;
74541;SDS011;63015;45.378;20.360;2024-01-07T07:25:49;10.30;;;4.65;;
74541;SDS011;63015;45.378;20.360;2024-01-07T07:27:49;10.80;;;5.07;;
74541;SDS011;63015;45.378;20.360;2024-01-07T07:29:50;10.98;;;5.05;;
74541;SDS011;63015;45.378;20.360;2024-01-07T07:31:50;11.80;;;5.70;;
74541;SDS011;63015;45.378;20.360;2024-01-07T07:33:51;12.05;;;5.95;;
74541;SDS011;63015;45.378;20.360;2024-01-07T07:35:52;16.42;;;6.60;;
74541;SDS011;63015;45.378;20.360;2024-01-07T07:37:52;13.32;;;6.32;;
74541;SDS011;63015;45.378;20.360;2024-01-07T07:39:53;14.05;;;6.80;;
74541;SDS011;63015;45.378;20.360;2024-01-07T07:41:53;14.35;;;6.60;;
74541;SDS011;63015;45.378;20.360;2024-01-07T07:43:54;11.63;;;5.28;;
74541;SDS011;63015;45.378;20.360;2024-01-07T07:45:54;10.65;;;4.90;;
74541;SDS011;63015;45.378;20.360;2024-01-07T07:47:55;9.00;;;4.00;;
74541;SDS011;63015;45.378;20.360;2024-01-07T07:49:55;7.90;;;3.92;;
74541;SDS011;63015;45.378;20.360;2024-01-07T07:51:56;9.73;;;4.20;;
74541;SDS011;63015;45.378;20.360;2024-01-07T07:53:57;7.32;;;3.88;;
74541;SDS011;63015;45.378;20.360;2024-01-07T07:55:57;14.90;;;6.93;;
74541;SDS011;63015;45.378;20.360;2024-01-07T07:57:58;18.30;;;8.63;;
74541;SDS011;63015;45.378;20.360;2024-01-07T07:59:58;27.63;;;11.13;;
74541;SDS011;63015;45.378;20.360;2024-01-07T08:01:59;29.42;;;11.18;;
74541;SDS011;63015;45.378;20.360;2024-01-07T08:03:59;21.42;;;9.48;;
74541;SDS011;63015;45.378;20.360;2024-01-07T08:06:00;24.48;;;9.10;;
74541;SDS011;63015;45.378;20.360;2024-01-07T08:08:01;21.67;;;9.43;;
74541;SDS011;63015;45.378;20.360;2024-01-07T08:10:01;29.55;;;11.52;;
74541;SDS011;63015;45.378;20.360;2024-01-07T08:12:03;27.80;;;10.13;;
74541;SDS011;63015;45.378;20.360;2024-01-07T08:14:04;18.73;;;6.82;;
74541;SDS011;63015;45.378;20.360;2024-01-07T08:16:06;15.30;;;6.45;;
74541;SDS011;63015;45.378;20.360;2024-01-07T08:18:06;17.13;;;7.63;;
74541;SDS011;63015;45.378;20.360;2024-01-07T08:20:07;14.23;;;6.43;;
74541;SDS011;63015;45.378;20.360;2024-01-07T08:22:08;10.05;;;4.78;;
74541;SDS011;63015;45.378;20.360;2024-01-07T08:24:12;10.15;;;5.15;;
74541;SDS011;63015;45.378;20.360;2024-01-07T08:26:14;14.73;;;6.65;;
74541;SDS011;63015;45.378;20.360;2024-01-07T08:28:18;17.25;;;8.18;;
74541;SDS011;63015;45.378;20.360;2024-01-07T08:30:20;15.18;;;6.00;;
74541;SDS011;63015;45.378;20.360;2024-01-07T08:32:21;26.85;;;13.18;;
74541;SDS011;63015;45.378;20.360;2024-01-07T08:34:22;16.35;;;8.30;;
74541;SDS011;63015;45.378;20.360;2024-01-07T08:36:23;12.15;;;5.43;;
74541;SDS011;63015;45.378;20.360;2024-01-07T08:38:24;9.50;;;5.03;;
74541;SDS011;63015;45.378;20.360;2024-01-07T08:40:25;10.82;;;5.15;;
74541;SDS011;63015;45.378;20.360;2024-01-07T08:42:26;10.75;;;4.85;;
74541;SDS011;63015;45.378;20.360;2024-01-07T08:44:30;8.25;;;4.22;;
74541;SDS011;63015;45.378;20.360;2024-01-07T08:46:31;10.75;;;4.03;;
74541;SDS011;63015;45.378;20.360;2024-01-07T08:48:31;9.98;;;5.35;;
74541;SDS011;63015;45.378;20.360;2024-01-07T08:50:31;16.35;;;7.40;;
74541;SDS011;63015;45.378;20.360;2024-01-07T08:52:32;14.95;;;7.13;;
74541;SDS011;63015;45.378;20.360;2024-01-07T08:54:35;17.33;;;7.00;;
74541;SDS011;63015;45.378;20.360;2024-01-07T08:56:35;16.05;;;7.18;;
74541;SDS011;63015;45.378;20.360;2024-01-07T08:58:36;14.07;;;6.55;;
74541;SDS011;63015;45.378;20.360;2024-01-07T09:00:37;11.05;;;5.25;;
74541;SDS011;63015;45.378;20.360;2024-01-07T09:02:37;10.20;;;4.28;;
74541;SDS011;63015;45.378;20.360;2024-01-07T09:04:40;7.40;;;3.35;;
74541;SDS011;63015;45.378;20.360;2024-01-07T09:06:40;7.35;;;3.17;;
74541;SDS011;63015;45.378;20.360;2024-01-07T09:08:41;6.97;;;3.55;;
74541;SDS011;63015;45.378;20.360;2024-01-07T09:10:42;7.07;;;3.70;;
74541;SDS011;63015;45.378;20.360;2024-01-07T09:12:43;8.10;;;3.25;;
74541;SDS011;63015;45.378;20.360;2024-01-07T09:14:43;10.30;;;4.32;;
74541;SDS011;63015;45.378;20.360;2024-01-07T09:16:44;7.63;;;3.20;;
74541;SDS011;63015;45.378;20.360;2024-01-07T09:18:44;7.88;;;3.17;;
74541;SDS011;63015;45.378;20.360;2024-01-07T09:20:45;7.38;;;3.30;;
74541;SDS011;63015;45.378;20.360;2024-01-07T09:22:45;8.88;;;3.35;;
74541;SDS011;63015;45.378;20.360;2024-01-07T09:24:46;8.93;;;3.58;;
74541;SDS011;63015;45.378;20.360;2024-01-07T09:26:46;8.05;;;3.38;;
74541;SDS011;63015;45.378;20.360;2024-01-07T09:28:47;12.02;;;5.13;;
74541;SDS011;63015;45.378;20.360;2024-01-07T09:30:47;12.10;;;4.97;;
74541;SDS011;63015;45.378;20.360;2024-01-07T09:32:48;10.75;;;4.63;;
74541;SDS011;63015;45.378;20.360;2024-01-07T09:34:48;10.82;;;5.00;;
74541;SDS011;63015;45.378;20.360;2024-01-07T09:36:48;8.02;;;4.05;;
74541;SDS011;63015;45.378;20.360;2024-01-07T09:38:49;9.45;;;3.97;;
74541;SDS011;63015;45.378;20.360;2024-01-07T09:40:49;9.75;;;4.30;;
74541;SDS011;63015;45.378;20.360;2024-01-07T09:42:50;10.02;;;4.63;;
74541;SDS011;63015;45.378;20.360;2024-01-07T09:44:51;10.95;;;5.38;;
74541;SDS011;63015;45.378;20.360;2024-01-07T09:46:52;11.20;;;4.32;;
74541;SDS011;63015;45.378;20.360;2024-01-07T09:48:54;13.70;;;5.30;;
74541;SDS011;63015;45.378;20.360;2024-01-07T09:50:55;8.35;;;3.38;;
74541;SDS011;63015;45.378;20.360;2024-01-07T09:52:57;7.15;;;3.70;;
74541;SDS011;63015;45.378;20.360;2024-01-07T09:55:02;9.00;;;3.95;;
74541;SDS011;63015;45.378;20.360;2024-01-07T09:57:07;6.72;;;3.25;;
74541;SDS011;63015;45.378;20.360;2024-01-07T09:59:08;8.05;;;3.90;;
74541;SDS011;63015;45.378;20.360;2024-01-07T10:01:09;7.65;;;3.15;;
74541;SDS011;63015;45.378;20.360;2024-01-07T10:03:10;9.32;;;3.55;;
74541;SDS011;63015;45.378;20.360;2024-01-07T10:05:11;10.15;;;3.85;;
74541;SDS011;63015;45.378;20.360;2024-01-07T10:07:11;7.22;;;3.58;;
74541;SDS011;63015;45.378;20.360;2024-01-07T10:09:12;8.85;;;3.78;;
74541;SDS011;63015;45.378;20.360;2024-01-07T10:11:15;8.27;;;4.13;;
74541;SDS011;63015;45.378;20.360;2024-01-07T10:13:16;8.20;;;3.42;;
74541;SDS011;63015;45.378;20.360;2024-01-07T10:15:16;7.97;;;3.60;;
74541;SDS011;63015;45.378;20.360;2024-01-07T10:17:17;8.65;;;4.28;;
74541;SDS011;63015;45.378;20.360;2024-01-07T10:19:22;8.90;;;4.03;;
74541;SDS011;63015;45.378;20.360;2024-01-07T10:21:23;10.00;;;3.95;;
74541;SDS011;63015;45.378;20.360;2024-01-07T10:23:24;8.23;;;4.03;;
74541;SDS011;63015;45.378;20.360;2024-01-07T10:25:26;9.77;;;4.53;;
74541;SDS011;63015;45.378;20.360;2024-01-07T10:27:28;9.70;;;3.95;;
74541;SDS011;63015;45.378;20.360;2024-01-07T10:29:28;8.57;;;4.00;;
74541;SDS011;63015;45.378;20.360;2024-01-07T10:31:29;10.30;;;4.70;;
74541;SDS011;63015;45.378;20.360;2024-01-07T10:33:33;8.02;;;3.97;;
74541;SDS011;63015;45.378;20.360;2024-01-07T10:35:34;8.70;;;4.40;;
74541;SDS011;63015;45.378;20.360;2024-01-07T10:37:36;10.13;;;4.82;;
74541;SDS011;63015;45.378;20.360;2024-01-07T10:39:36;10.60;;;5.30;;
74541;SDS011;63015;45.378;20.360;2024-01-07T10:41:37;9.95;;;5.03;;
74541;SDS011;63015;45.378;20.360;2024-01-07T10:43:39;10.45;;;4.88;;
74541;SDS011;63015;45.378;20.360;2024-01-07T10:45:42;10.82;;;5.47;;
74541;SDS011;63015;45.378;20.360;2024-01-07T10:47:49;9.60;;;5.40;;
74541;SDS011;63015;45.378;20.360;2024-01-07T10:49:52;11.50;;;5.50;;
74541;SDS011;63015;45.378;20.360;2024-01-07T10:54:04;10.90;;;5.38;;
74541;SDS011;63015;45.378;20.360;2024-01-07T10:56:08;9.15;;;4.80;;
74541;SDS011;63015;45.378;20.360;2024-01-07T10:58:12;9.55;;;5.20;;
74541;SDS011;63015;45.378;20.360;2024-01-07T11:00:13;10.68;;;4.78;;
74541;SDS011;63015;45.378;20.360;2024-01-07T11:02:20;8.90;;;4.20;;
74541;SDS011;63015;45.378;20.360;2024-01-07T11:04:23;10.63;;;4.45;;
74541;SDS011;63015;45.378;20.360;2024-01-07T11:06:40;12.88;;;4.63;;
74541;SDS011;63015;45.378;20.360;2024-01-07T11:09:26;10.45;;;4.55;;
74541;SDS011;63015;45.378;20.360;2024-01-07T11:11:35;8.25;;;4.18;;
74541;SDS011;63015;45.378;20.360;2024-01-07T11:13:41;9.02;;;4.47;;
74541;SDS011;63015;45.378;20.360;2024-01-07T11:17:48;9.13;;;4.15;;
74541;SDS011;63015;45.378;20.360;2024-01-07T11:19:51;7.97;;;4.68;;
74541;SDS011;63015;45.378;20.360;2024-01-07T11:21:52;9.00;;;3.75;;
74541;SDS011;63015;45.378;20.360;2024-01-07T11:23:52;8.35;;;3.97;;
74541;SDS011;63015;45.378;20.360;2024-01-07T11:25:53;12.02;;;3.88;;
74541;SDS011;63015;45.378;20.360;2024-01-07T11:27:53;9.65;;;4.07;;
74541;SDS011;63015;45.378;20.360;2024-01-07T11:29:57;54.17;;;24.75;;
74541;SDS011;63015;45.378;20.360;2024-01-07T11:32:00;27.92;;;17.02;;
74541;SDS011;63015;45.378;20.360;2024-01-07T11:34:01;37.97;;;20.10;;
74541;SDS011;63015;45.378;20.360;2024-01-07T11:36:02;83.63;;;41.85;;
74541;SDS011;63015;45.378;20.360;2024-01-07T11:38:04;12.85;;;5.07;;
74541;SDS011;63015;45.378;20.360;2024-01-07T11:40:05;40.95;;;19.70;;
74541;SDS011;63015;45.378;20.360;2024-01-07T11:42:07;102.05;;;42.72;;
74541;SDS011;63015;45.378;20.360;2024-01-07T11:44:07;53.05;;;28.92;;
74541;SDS011;63015;45.378;20.360;2024-01-07T11:46:11;20.05;;;12.13;;
74541;SDS011;63015;45.378;20.360;2024-01-07T11:48:11;20.00;;;13.00;;
74541;SDS011;63015;45.378;20.360;2024-01-07T11:50:12;18.70;;;10.40;;
74541;SDS011;63015;45.378;20.360;2024-01-07T11:52:12;15.07;;;5.78;;
74541;SDS011;63015;45.378;20.360;2024-01-07T11:54:13;10.68;;;5.70;;
74541;SDS011;63015;45.378;20.360;2024-01-07T11:56:14;10.50;;;5.55;;
74541;SDS011;63015;45.378;20.360;2024-01-07T11:58:14;11.20;;;5.45;;
74541;SDS011;63015;45.378;20.360;2024-01-07T12:00:15;10.30;;;6.00;;